Time;durP1;ratioP1;P1;durP2;ratioP2;P2;SDS_P1;SDS_P2;PMS_P1;PMS_P2;Temp;Humidity;BMP_temperature;BMP_pressure;BME280_temperature;BME280_humidity;BME280_pressure;Samples;Min_cycle;Max_cycle;Signal;HPM_P1;HPM_P2
2023/09/13 00:01:51;;;;;;;0.10;0.10;;;;;;;17.59;100.00;101130.41;5115133;28;20028;-48
2023/09/13 00:04:16;;;;;;;0.10;0.10;;;;;;;17.56;100.00;101129.56;5114059;28;20011;-46
2023/09/13 00:06:42;;;;;;;0.00;0.00;;;;;;;17.60;100.00;101131.31;5113967;28;20034;-46
2023/09/13 00:09:08;;;;;;;0.10;0.10;;;;;;;17.61;100.00;101130.44;5114060;28;20026;-48
2023/09/13 00:11:35;;;;;;;0.00;0.00;;;;;;;17.57;100.00;101139.09;5114539;28;20478;-46
2023/09/13 00:14:00;;;;;;;0.10;0.10;;;;;;;17.60;100.00;101129.56;5114937;28;20035;-46
2023/09/13 00:16:26;;;;;;;0.00;0.00;;;;;;;17.61;100.00;101133.03;5113810;28;20398;-46
2023/09/13 00:18:51;;;;;;;0.00;0.00;;;;;;;17.69;100.00;101128.75;5114956;28;20023;-48
2023/09/13 00:21:17;;;;;;;0.00;0.00;;;;;;;17.65;100.00;101127.00;5114519;28;20098;-48
2023/09/13 00:23:43;;;;;;;0.00;0.00;;;;;;;17.68;100.00;101127.00;5113819;28;20066;-46
2023/09/13 00:26:09;;;;;;;0.10;0.10;;;;;;;17.67;100.00;101130.47;5114783;28;20415;-48
2023/09/13 00:28:34;;;;;;;0.00;0.00;;;;;;;17.67;100.00;101129.59;5114414;28;20024;-48
2023/09/13 00:30:59;;;;;;;0.10;0.10;;;;;;;17.67;100.00;101135.69;5114019;28;20026;-49
2023/09/13 00:33:25;;;;;;;0.10;0.10;;;;;;;17.66;100.00;101131.31;5114189;28;20030;-47
2023/09/13 00:35:56;;;;;;;0.10;0.10;;;;;;;17.64;100.00;101133.06;5114476;28;20440;-46
2023/09/13 00:38:22;;;;;;;0.03;0.03;;;;;;;17.66;100.00;101126.09;5113124;28;20133;-51
2023/09/13 00:40:47;;;;;;;0.00;0.00;;;;;;;17.61;100.00;101130.44;5114565;27;20012;-46
2023/09/13 00:43:12;;;;;;;0.00;0.00;;;;;;;17.60;100.00;101126.09;5113887;28;20463;-47
2023/09/13 00:45:38;;;;;;;0.00;0.00;;;;;;;17.59;100.00;101126.97;5113584;28;20019;-49
2023/09/13 00:48:04;;;;;;;0.00;0.00;;;;;;;17.55;100.00;101120.00;5114287;28;20028;-46
2023/09/13 00:50:30;;;;;;;0.00;0.00;;;;;;;17.49;100.00;101127.78;5113891;28;20020;-47
2023/09/13 00:52:57;;;;;;;0.00;0.00;;;;;;;17.47;100.00;101124.28;5113292;28;20024;-46
2023/09/13 00:55:24;;;;;;;0.00;0.00;;;;;;;17.43;100.00;101126.88;5113841;28;20035;-48
2023/09/13 00:57:50;;;;;;;0.10;0.10;;;;;;;17.36;100.00;101127.69;5113797;28;20169;-50
2023/09/13 01:00:17;;;;;;;0.03;0.03;;;;;;;17.22;100.00;101127.63;5112953;28;20489;-45
2023/09/13 01:02:44;;;;;;;0.10;0.10;;;;;;;17.21;100.00;101125.00;5114097;28;20077;-46
2023/09/13 01:05:12;;;;;;;0.00;0.00;;;;;;;17.19;100.00;101124.13;5113942;28;20027;-46
2023/09/13 01:07:40;;;;;;;0.10;0.10;;;;;;;17.15;100.00;101115.41;5113657;28;20045;-46
2023/09/13 01:10:05;;;;;;;;;;;;;;;17.24;100.00;101119.81;5114145;28;20560;-46
2023/09/13 01:12:31;;;;;;;0.05;0.05;;;;;;;17.14;100.00;101118.00;5112844;28;20633;-46
2023/09/13 01:14:56;;;;;;;0.00;0.00;;;;;;;17.11;100.00;101124.06;5113786;28;20032;-47
2023/09/13 01:17:42;;;;;;;0.00;0.00;;;;;;;17.13;100.00;101126.69;5113292;28;20023;-48
2023/09/13 01:20:20;;;;;;;0.10;0.10;;;;;;;17.10;100.00;101125.78;5098794;28;20114;-46
2023/09/13 01:22:48;;;;;;;0.10;0.10;;;;;;;17.08;100.00;101124.91;5113585;28;20034;-46
2023/09/13 01:25:51;;;;;;;0.10;0.10;;;;;;;17.08;100.00;101127.53;5113256;28;20028;-46
2023/09/13 01:28:41;;;;;;;0.05;0.05;;;;;;;17.10;100.00;101127.53;5112321;28;20042;-48
2023/09/13 01:31:10;;;;;;;0.10;0.10;;;;;;;17.08;100.00;101124.03;5113755;28;20076;-48
2023/09/13 01:33:36;;;;;;;0.10;0.10;;;;;;;17.11;100.00;101117.13;5112422;28;20079;-45
2023/09/13 01:36:02;;;;;;;0.10;0.10;;;;;;;17.10;100.00;101135.34;5113645;28;20095;-50
2023/09/13 01:38:28;;;;;;;0.10;0.10;;;;;;;17.10;100.00;101127.53;5113169;28;20024;-46
2023/09/13 01:41:03;;;;;;;0.10;0.10;;;;;;;17.09;100.00;101126.66;5112729;28;20165;-46
2023/09/13 01:43:29;;;;;;;0.03;0.03;;;;;;;17.04;100.00;101130.09;5113072;28;20016;-51
2023/09/13 01:45:56;;;;;;;0.10;0.10;;;;;;;17.00;100.00;101125.72;5113225;28;20467;-47
2023/09/13 01:48:23;;;;;;;0.10;0.10;;;;;;;16.99;100.00;101135.28;5112256;28;20031;-46
2023/09/13 01:50:49;;;;;;;0.00;0.00;;;;;;;16.96;100.00;101135.22;5113236;28;20379;-49
2023/09/13 01:53:15;;;;;;;0.10;0.10;;;;;;;16.95;100.00;101142.19;5113068;28;20027;-51
2023/09/13 01:55:40;;;;;;;0.10;0.10;;;;;;;16.91;100.00;101153.44;5112139;28;20109;-47
2023/09/13 01:58:05;;;;;;;0.10;0.10;;;;;;;16.92;100.00;101149.94;5113428;28;20019;-48
2023/09/13 02:00:31;;;;;;;0.10;0.10;;;;;;;16.87;100.00;101145.53;5112899;28;20483;-46
2023/09/13 02:02:56;;;;;;;0.10;0.10;;;;;;;16.85;100.00;101142.03;5112471;28;20106;-49
2023/09/13 02:05:21;;;;;;;0.10;0.10;;;;;;;16.87;100.00;101145.53;5113014;28;20030;-49
2023/09/13 02:07:47;;;;;;;0.10;0.10;;;;;;;16.84;100.00;101146.38;5113143;28;20433;-46
2023/09/13 02:10:12;;;;;;;0.10;0.10;;;;;;;16.83;100.00;101151.59;5111939;28;20428;-48
2023/09/13 02:12:37;;;;;;;0.10;0.10;;;;;;;16.82;100.00;101148.09;5113314;28;20055;-48
2023/09/13 02:15:04;;;;;;;0.10;0.10;;;;;;;16.81;100.00;101159.38;5112903;28;20030;-45
2023/09/13 02:17:31;;;;;;;0.10;0.10;;;;;;;16.77;100.00;101166.28;5112009;28;20024;-47
2023/09/13 02:19:56;;;;;;;0.10;0.10;;;;;;;16.76;100.00;101163.69;5113128;28;20031;-47
2023/09/13 02:22:21;;;;;;;0.03;0.03;;;;;;;16.73;100.00;101161.94;5112665;28;20028;-48
2023/09/13 02:24:47;;;;;;;0.10;0.10;;;;;;;16.73;100.00;101168.84;5112181;28;20110;-48
2023/09/13 02:27:12;;;;;;;0.10;0.10;;;;;;;16.70;100.00;101164.47;5112620;28;20019;-47
2023/09/13 02:29:37;;;;;;;0.10;0.10;;;;;;;16.69;100.00;101167.06;5114170;28;20497;-47
2023/09/13 02:32:03;;;;;;;0.10;0.10;;;;;;;16.66;100.00;101167.91;5116963;28;20073;-49
2023/09/13 02:34:28;;;;;;;0.10;0.10;;;;;;;16.65;100.00;101163.56;5116518;28;20027;-48
2023/09/13 02:36:53;;;;;;;0.00;0.00;;;;;;;16.64;100.00;101167.03;5115991;28;20023;-50
2023/09/13 02:39:39;;;;;;;0.10;0.10;;;;;;;16.62;100.00;101168.75;5116269;28;20036;-50
2023/09/13 02:42:06;;;;;;;0.10;0.10;;;;;;;16.61;100.00;101177.41;5116863;28;20215;-49
2023/09/13 02:44:33;;;;;;;0.10;0.10;;;;;;;16.60;100.00;101175.66;5115751;28;20023;-50
2023/09/13 02:46:59;;;;;;;0.00;0.00;;;;;;;16.61;100.00;101182.63;5116904;28;20115;-46
2023/09/13 02:49:24;;;;;;;0.10;0.10;;;;;;;16.63;100.00;101180.91;5116203;28;20459;-46
2023/09/13 02:51:54;;;;;;;0.10;0.10;;;;;;;16.61;100.00;101175.66;5115535;28;20091;-47
2023/09/13 02:54:20;;;;;;;0.10;0.10;;;;;;;16.64;100.00;101180.03;5116499;28;20027;-49
2023/09/13 02:56:46;;;;;;;0.10;0.10;;;;;;;16.65;100.00;101175.72;5116284;28;20058;-47
2023/09/13 02:59:12;;;;;;;0.10;0.10;;;;;;;16.66;100.00;101173.13;5115416;28;20054;-48
2023/09/13 03:01:37;;;;;;;0.10;0.10;;;;;;;16.67;100.00;101185.28;5116318;28;20047;-46
2023/09/13 03:04:03;;;;;;;0.10;0.10;;;;;;;16.70;100.00;101180.09;5116167;28;20045;-46
2023/09/13 03:06:29;;;;;;;0.10;0.10;;;;;;;16.75;100.00;101183.63;5114946;28;20047;-50
2023/09/13 03:08:58;;;;;;;0.10;0.10;;;;;;;16.74;100.00;101189.66;5116301;28;20038;-46
2023/09/13 03:11:23;;;;;;;0.10;0.10;;;;;;;16.76;100.00;101185.38;5115900;27;20046;-50
2023/09/13 03:13:49;;;;;;;0.10;0.10;;;;;;;16.78;100.00;101182.78;5115317;28;20390;-50
2023/09/13 03:16:17;;;;;;;0.10;0.10;;;;;;;16.80;100.00;101186.28;5115815;28;20031;-50
2023/09/13 03:18:44;;;;;;;0.10;0.10;;;;;;;16.80;100.00;101188.88;5115813;28;20356;-47
2023/09/13 03:21:10;;;;;;;0.10;0.10;;;;;;;16.82;100.00;101189.75;5115294;28;20129;-47
2023/09/13 03:23:41;;;;;;;0.10;0.10;;;;;;;16.83;100.00;101191.50;5115657;28;20027;-49
2023/09/13 03:26:14;;;;;;;0.10;0.10;;;;;;;16.84;100.00;101189.78;5115091;28;20024;-50
2023/09/13 03:28:42;;;;;;;0.10;0.10;;;;;;;16.84;100.00;101187.19;5115676;28;20483;-51
2023/09/13 03:31:14;;;;;;;0.10;0.10;;;;;;;16.86;100.00;101191.53;5115658;28;20387;-50
2023/09/13 03:33:41;;;;;;;0.10;0.10;;;;;;;16.86;100.00;101191.53;5114989;28;20107;-47
2023/09/13 03:36:08;;;;;;;0.10;0.10;;;;;;;16.87;100.00;101189.81;5115723;28;20027;-49
2023/09/13 03:38:35;;;;;;;0.10;0.10;;;;;;;16.86;100.00;101193.25;5115254;28;20544;-50
2023/09/13 03:41:03;;;;;;;0.10;0.10;;;;;;;16.87;100.00;101195.00;5114760;28;20134;-51
2023/09/13 03:43:28;;;;;;;0.10;0.10;;;;;;;16.87;100.00;101202.81;5115248;28;20023;-49
2023/09/13 03:45:54;;;;;;;0.10;0.10;;;;;;;16.87;100.00;101208.03;5115326;28;20482;-50
2023/09/13 03:48:19;;;;;;;0.10;0.10;;;;;;;16.83;100.00;101203.66;5114878;28;20136;-51
2023/09/13 03:50:44;;;;;;;0.10;0.10;;;;;;;16.85;100.00;101201.91;5115497;27;20063;-49
2023/09/13 03:53:10;;;;;;;0.10;0.10;;;;;;;16.85;100.00;101200.22;5115359;28;20090;-47
2023/09/13 03:55:35;;;;;;;0.00;0.00;;;;;;;16.88;100.00;101194.16;5113914;28;20035;-51
2023/09/13 03:58:00;;;;;;;0.10;0.10;;;;;;;16.85;100.00;101194.09;5115141;28;20475;-51
2023/09/13 04:00:26;;;;;;;0.10;0.10;;;;;;;16.82;100.00;101200.16;5114662;28;20059;-49
2023/09/13 04:02:52;;;;;;;0.10;0.10;;;;;;;16.79;100.00;101200.13;5114361;27;20030;-50
2023/09/13 04:05:17;;;;;;;0.10;0.10;;;;;;;16.76;100.00;101194.91;5114875;28;20035;-50
2023/09/13 04:07:42;;;;;;;0.10;0.10;;;;;;;16.77;100.00;101197.53;5115253;28;20074;-51
2023/09/13 04:10:08;;;;;;;0.08;0.08;;;;;;;16.76;100.00;101193.19;5114153;28;20020;-49
2023/09/13 04:12:33;;;;;;;0.00;0.00;;;;;;;16.77;100.00;101191.44;5114563;28;20049;-51
2023/09/13 04:14:58;;;;;;;0.10;0.10;;;;;;;16.75;100.00;101194.03;5114640;28;20399;-49
2023/09/13 04:17:23;;;;;;;0.10;0.10;;;;;;;16.78;100.00;101199.28;5113985;28;20489;-49
2023/09/13 04:19:49;;;;;;;0.10;0.10;;;;;;;16.78;100.00;101199.28;5114764;28;20459;-47
2023/09/13 04:22:16;;;;;;;0.10;0.10;;;;;;;16.79;100.00;101205.34;5113717;28;20027;-48
2023/09/13 04:24:42;;;;;;;0.10;0.10;;;;;;;16.78;100.00;101203.59;5114832;28;20020;-48
2023/09/13 04:27:08;;;;;;;0.10;0.10;;;;;;;16.80;100.00;101201.88;5114615;28;20052;-51
2023/09/13 04:29:33;;;;;;;0.10;0.10;;;;;;;16.79;100.00;101203.59;5113414;28;20030;-49
2023/09/13 04:31:59;;;;;;;0.10;0.10;;;;;;;16.83;100.00;101206.25;5114426;28;20527;-50
2023/09/13 04:34:25;;;;;;;0.10;0.10;;;;;;;16.82;100.00;101205.38;5114378;28;20024;-50
2023/09/13 04:36:50;;;;;;;0.10;0.10;;;;;;;16.85;100.00;101199.31;5113815;28;20076;-50
2023/09/13 04:39:16;;;;;;;0.10;0.10;;;;;;;16.84;100.00;101208.00;5113978;28;20019;-49
2023/09/13 04:41:41;;;;;;;0.10;0.10;;;;;;;16.82;100.00;101210.56;5114516;28;20153;-48
2023/09/13 04:44:06;;;;;;;0.10;0.10;;;;;;;16.76;100.00;101208.78;5113400;28;20141;-50
2023/09/13 04:46:32;;;;;;;0.10;0.10;;;;;;;16.77;100.00;101207.03;5113826;28;20026;-51
2023/09/13 04:48:57;;;;;;;0.10;0.10;;;;;;;16.75;100.00;101208.78;5114343;28;20080;-50
2023/09/13 04:51:23;;;;;;;0.10;0.10;;;;;;;16.72;100.00;101203.53;5112927;28;20024;-46
2023/09/13 04:53:48;;;;;;;0.10;0.10;;;;;;;16.66;100.00;101204.34;5114020;28;20032;-48
2023/09/13 04:56:13;;;;;;;0.10;0.10;;;;;;;16.62;100.00;101202.59;5113442;28;20054;-50
2023/09/13 04:58:38;;;;;;;0.10;0.10;;;;;;;16.62;100.00;101202.59;5113312;28;20032;-49
2023/09/13 05:01:04;;;;;;;0.10;0.10;;;;;;;16.62;100.00;101208.66;5113865;28;20050;-50
2023/09/13 05:03:29;;;;;;;0.10;0.10;;;;;;;16.65;100.00;101206.94;5113779;28;20011;-51
2023/09/13 05:05:55;;;;;;;0.10;0.10;;;;;;;16.64;100.00;101211.25;5113179;28;20051;-50
2023/09/13 05:08:20;;;;;;;0.03;0.03;;;;;;;16.62;100.00;101213.84;5113629;28;20475;-49
2023/09/13 05:10:46;;;;;;;0.10;0.10;;;;;;;16.63;100.00;101225.16;5113754;28;20080;-50
2023/09/13 05:13:12;;;;;;;0.10;0.10;;;;;;;16.63;100.00;101230.34;5112804;28;20020;-50
2023/09/13 05:15:44;;;;;;;0.10;0.10;;;;;;;16.63;100.00;101227.75;5113641;28;20074;-50
2023/09/13 05:18:10;;;;;;;0.10;0.10;;;;;;;16.63;100.00;101226.00;5113834;28;20020;-51
2023/09/13 05:20:35;;;;;;;0.10;0.10;;;;;;;16.69;100.00;101225.19;5112572;28;20386;-50
2023/09/13 05:23:00;;;;;;;0.10;0.10;;;;;;;16.69;100.00;101219.97;5113510;28;20024;-50
2023/09/13 05:25:25;;;;;;;0.10;0.10;;;;;;;16.70;100.00;101226.09;5112983;28;20031;-46
2023/09/13 05:27:51;;;;;;;0.10;0.10;;;;;;;16.68;100.00;101215.66;5113378;28;20027;-50
2023/09/13 05:30:16;;;;;;;0.10;0.10;;;;;;;16.63;100.00;101215.59;5113405;28;20019;-50
2023/09/13 05:32:41;;;;;;;0.10;0.10;;;;;;;16.58;100.00;101219.03;5112538;28;20115;-50
2023/09/13 05:35:07;;;;;;;0.10;0.10;;;;;;;16.60;100.00;101226.00;5113469;28;20023;-50
2023/09/13 05:37:32;;;;;;;0.10;0.10;;;;;;;16.58;100.00;101224.22;5113106;28;20020;-50
2023/09/13 05:39:59;;;;;;;0.10;0.10;;;;;;;16.55;100.00;101227.66;5112723;28;20072;-47
2023/09/13 05:42:24;;;;;;;0.10;0.10;;;;;;;16.54;100.00;101220.72;5113077;28;20027;-51
2023/09/13 05:44:50;;;;;;;0.10;0.10;;;;;;;16.54;100.00;101235.44;5113300;28;20028;-50
2023/09/13 05:47:15;;;;;;;0.10;0.10;;;;;;;16.56;100.00;101244.16;5112339;28;20077;-50
2023/09/13 05:49:40;;;;;;;0.10;0.10;;;;;;;16.56;100.00;101231.13;5113407;28;20024;-51
2023/09/13 05:52:05;;;;;;;0.10;0.10;;;;;;;16.53;100.00;101237.19;5113427;28;20073;-50
2023/09/13 05:54:31;;;;;;;0.10;0.10;;;;;;;16.52;100.00;101248.44;5112091;28;20043;-49
2023/09/13 05:56:56;;;;;;;0.10;0.10;;;;;;;16.54;100.00;101253.66;5112964;28;20104;-51
2023/09/13 05:59:22;;;;;;;0.10;0.10;;;;;;;16.57;100.00;101254.56;5112834;28;20020;-50
2023/09/13 06:01:48;;;;;;;0.10;0.10;;;;;;;16.58;100.00;101256.31;5112550;28;20476;-50
2023/09/13 06:04:13;;;;;;;0.10;0.10;;;;;;;16.61;100.00;101252.88;5114184;28;20043;-50
2023/09/13 06:06:38;;;;;;;0.10;0.10;;;;;;;16.64;100.00;101260.69;5117373;28;20063;-50
2023/09/13 06:09:04;;;;;;;0.10;0.10;;;;;;;16.65;100.00;101267.66;5116572;28;20030;-50
2023/09/13 06:11:30;;;;;;;0.10;0.10;;;;;;;16.69;100.00;101260.75;5116973;28;20028;-51
2023/09/13 06:13:55;;;;;;;0.03;0.03;;;;;;;16.71;100.00;101270.34;5117066;28;20027;-51
2023/09/13 06:16:21;;;;;;;0.10;0.10;;;;;;;16.75;100.00;101272.09;5116156;28;20024;-50
2023/09/13 06:18:46;;;;;;;0.00;0.00;;;;;;;16.76;100.00;101279.06;5117334;28;20039;-49
2023/09/13 06:21:12;;;;;;;0.10;0.10;;;;;;;16.78;100.00;101282.56;5117062;28;20024;-48
2023/09/13 06:23:40;;;;;;;0.10;0.10;;;;;;;16.78;100.00;101295.59;5116218;28;20475;-49
2023/09/13 06:26:07;;;;;;;0.10;0.10;;;;;;;16.80;100.00;101290.41;5116994;28;20049;-51
2023/09/13 06:28:32;;;;;;;0.10;0.10;;;;;;;16.85;100.00;101298.22;5116932;28;20050;-50
2023/09/13 06:30:58;;;;;;;0.10;0.10;;;;;;;16.87;100.00;101299.13;5116414;28;20467;-49
2023/09/13 06:33:26;;;;;;;0.10;0.10;;;;;;;16.88;100.00;101306.09;5116781;28;20057;-50
2023/09/13 06:35:54;;;;;;;0.10;0.10;;;;;;;16.89;100.00;101302.66;5116061;28;20038;-50
2023/09/13 06:38:19;;;;;;;;;;;;;;;17.02;100.00;101314.09;5116922;27;20031;-49
2023/09/13 06:40:47;;;;;;;0.10;0.10;;;;;;;16.94;100.00;101316.63;5116644;28;19912;-50
2023/09/13 06:43:13;;;;;;;0.10;0.10;;;;;;;16.96;100.00;101317.50;5115584;28;20532;-50
2023/09/13 06:45:39;;;;;;;0.10;0.10;;;;;;;17.05;100.00;101322.78;5116834;27;20070;-50
2023/09/13 06:48:04;;;;;;;0.10;0.10;;;;;;;17.10;100.00;101315.91;5116823;28;20451;-50
2023/09/13 06:50:30;;;;;;;0.10;0.10;;;;;;;17.17;100.00;101318.56;5115507;28;20027;-50
2023/09/13 06:52:56;;;;;;;0.05;0.05;;;;;;;17.12;100.00;101318.53;5116365;28;20031;-46
2023/09/13 06:55:21;;;;;;;0.03;0.03;;;;;;;17.15;100.00;101317.69;5116061;27;20036;-62
2023/09/13 06:57:48;;;;;;;0.10;0.10;;;;;;;17.23;100.00;101321.25;5115294;28;20180;-46
2023/09/13 07:00:14;;;;;;;0.10;0.10;;;;;;;17.35;100.00;101325.69;5116044;28;20416;-46
2023/09/13 07:02:39;;;;;;;0.00;0.00;;;;;;;17.43;100.00;101332.72;5116544;28;20028;-48
2023/09/13 07:05:05;;;;;;;0.10;0.10;;;;;;;17.58;100.00;101328.50;5115416;28;20020;-46
2023/09/13 07:07:31;;;;;;;0.10;0.10;;;;;;;17.64;100.00;101333.75;5115960;28;20027;-52
2023/09/13 07:09:56;;;;;;;0.10;0.10;;;;;;;17.75;100.00;101326.00;5116062;28;20379;-49
2023/09/13 07:12:21;;;;;;;0.08;0.08;;;;;;;17.84;100.00;101336.50;5114739;28;20489;-46
2023/09/13 07:14:46;;;;;;;0.10;0.10;;;;;;;17.97;100.00;101337.50;5115660;28;20066;-46
2023/09/13 07:17:12;;;;;;;0.00;0.00;;;;;;;18.01;100.00;101339.28;5115751;28;20020;-45
2023/09/13 07:19:37;;;;;;;0.10;0.10;;;;;;;18.02;100.00;101342.75;5115341;28;20058;-50
2023/09/13 07:22:03;;;;;;;0.10;0.10;;;;;;;18.00;100.00;101344.47;5115963;27;20024;-47
2023/09/13 07:24:29;;;;;;;0.10;0.10;;;;;;;18.01;100.00;101351.44;5115549;28;20030;-45
2023/09/13 07:26:55;;;;;;;0.10;0.10;;;;;;;17.95;100.00;101354.88;5115052;28;20395;-50
2023/09/13 07:29:21;;;;;;;0.00;0.00;;;;;;;17.88;100.00;101347.84;5115675;28;20053;-48
2023/09/13 07:31:46;;;;;;;0.10;0.10;;;;;;;17.89;100.00;101350.44;5115660;28;20019;-47
2023/09/13 07:34:12;;;;;;;0.10;0.10;;;;;;;17.87;100.00;101361.72;5114797;28;20035;-46
2023/09/13 07:36:37;;;;;;;0.10;0.10;;;;;;;17.79;100.00;101353.84;5115621;28;20031;-45
2023/09/13 07:39:03;;;;;;;0.00;0.00;;;;;;;17.64;100.00;101375.47;5115318;28;20023;-49
2023/09/13 07:41:29;;;;;;;0.00;0.00;;;;;;;17.34;100.00;101382.16;5114834;27;20051;-46
2023/09/13 07:43:54;;;;;;;0.00;0.00;;;;;;;17.17;100.00;101384.56;5115701;28;20047;-46
2023/09/13 07:46:22;;;;;;;0.10;0.10;;;;;;;16.89;100.00;101388.56;5114401;28;20089;-48
2023/09/13 07:48:47;;;;;;;0.10;0.10;;;;;;;16.70;100.00;101393.50;5115729;28;20047;-49
2023/09/13 07:51:12;;;;;;;0.10;0.10;;;;;;;16.50;100.00;101397.56;5115245;28;20501;-46
2023/09/13 07:53:38;;;;;;;0.10;0.10;;;;;;;16.33;100.00;101397.34;5114710;28;20023;-46
2023/09/13 07:56:03;;;;;;;0.10;0.10;;;;;;;16.18;100.00;101413.56;5114967;28;20036;-45
2023/09/13 07:58:28;;;;;;;0.10;0.10;;;;;;;16.06;100.00;101409.06;5115104;28;20027;-50
2023/09/13 08:00:54;;;;;;;0.00;0.00;;;;;;;15.99;100.00;101423.69;5114270;28;20437;-46
2023/09/13 08:03:20;;;;;;;0.10;0.10;;;;;;;15.97;100.00;101414.97;5114810;28;20059;-45
2023/09/13 08:05:47;;;;;;;0.00;0.00;;;;;;;16.01;100.00;101424.59;5115305;27;20029;-48
2023/09/13 08:08:14;;;;;;;0.10;0.10;;;;;;;16.19;100.00;101441.34;5114046;28;20454;-47
2023/09/13 08:10:40;;;;;;;0.10;0.10;;;;;;;16.17;100.00;101443.06;5115134;28;20029;-47
2023/09/13 08:13:06;;;;;;;0.10;0.10;;;;;;;16.20;100.00;101454.34;5115076;28;20016;-46
2023/09/13 08:15:32;;;;;;;0.00;0.00;;;;;;;16.30;100.00;101452.78;5113817;28;20035;-50
2023/09/13 08:17:57;;;;;;;0.10;0.10;;;;;;;16.33;100.00;101454.56;5115001;28;20034;-49
2023/09/13 08:20:22;;;;;;;0.10;0.10;;;;;;;16.36;100.00;101465.00;5114559;28;20027;-45
2023/09/13 08:22:48;;;;;;;0.10;0.10;;;;;;;16.31;100.00;101467.56;5113809;28;20031;-46
2023/09/13 08:25:13;;;;;;;0.10;0.10;;;;;;;16.34;100.00;101478.00;5114617;28;20024;-45
2023/09/13 08:27:38;;;;;;;0.10;0.10;;;;;;;16.33;100.00;101471.03;5113891;28;20416;-46
2023/09/13 08:30:04;;;;;;;0.10;0.10;;;;;;;16.39;100.00;101480.69;5113665;28;20038;-50
2023/09/13 08:32:30;;;;;;;0.10;0.10;;;;;;;16.49;100.00;101492.09;5114392;28;20108;-50
2023/09/13 08:34:55;;;;;;;0.10;0.10;;;;;;;16.48;100.00;101500.78;5114364;28;20063;-47
2023/09/13 08:37:21;;;;;;;0.00;0.00;;;;;;;16.41;100.00;101505.88;5113392;28;20027;-48
2023/09/13 08:39:46;;;;;;;0.00;0.00;;;;;;;16.31;100.00;101506.56;5114426;28;20489;-51
2023/09/13 08:42:13;;;;;;;0.03;0.03;;;;;;;16.30;100.00;101507.41;5114286;28;20061;-47
2023/09/13 08:44:40;;;;;;;0.00;0.00;;;;;;;16.42;100.00;101514.53;5113531;27;20558;-45
2023/09/13 08:47:09;;;;;;;0.10;0.10;;;;;;;16.57;100.00;101526.94;5114340;28;20020;-50
2023/09/13 08:49:36;;;;;;;0.10;0.10;;;;;;;16.59;100.00;101535.63;5113202;28;20059;-46
2023/09/13 08:52:05;;;;;;;0.10;0.10;;;;;;;16.68;100.00;101543.59;5114108;28;20058;-47
2023/09/13 08:54:32;;;;;;;0.10;0.10;;;;;;;16.69;100.00;101545.31;5113897;28;20031;-45
2023/09/13 08:56:58;;;;;;;0.00;0.00;;;;;;;16.75;100.00;101553.22;5113230;28;20056;-50
2023/09/13 08:59:23;;;;;;;0.00;0.00;;;;;;;16.83;100.00;101565.50;5113918;28;20114;-46
2023/09/13 09:01:51;;;;;;;0.00;0.00;;;;;;;16.79;100.00;101572.38;5114114;28;20055;-45
2023/09/13 09:04:18;;;;;;;0.05;0.05;;;;;;;16.73;100.00;101567.97;5112875;28;20109;-45
2023/09/13 09:06:44;;;;;;;0.10;0.10;;;;;;;16.66;100.00;101568.72;5113884;28;20497;-47
2023/09/13 09:09:21;;;;;;;0.00;0.00;;;;;;;16.63;100.00;101573.88;5113821;27;20023;-46
2023/09/13 09:11:58;;;;;;;0.00;0.00;;;;;;;16.61;100.00;101589.44;5113424;28;20020;-50
2023/09/13 09:14:26;;;;;;;0.00;0.00;;;;;;;16.59;100.00;101587.66;5113549;28;20026;-47
2023/09/13 09:16:54;;;;;;;0.00;0.00;;;;;;;16.57;100.00;101589.38;5113678;28;20038;-45
2023/09/13 09:19:20;;;;;;;0.10;0.10;;;;;;;16.46;100.00;101597.00;5112566;28;20019;-45
2023/09/13 09:21:46;;;;;;;0.00;0.00;;;;;;;16.42;100.00;101590.88;5113866;28;20051;-51
2023/09/13 09:24:11;;;;;;;0.10;0.10;;;;;;;16.56;100.00;101592.81;5113838;28;20062;-48
2023/09/13 09:26:36;;;;;;;0.10;0.10;;;;;;;16.67;100.00;101599.09;5112676;28;20055;-46
2023/09/13 09:29:10;;;;;;;0.10;0.10;;;;;;;16.72;100.00;101599.16;5113585;28;20020;-46
2023/09/13 09:31:36;;;;;;;0.00;0.00;;;;;;;16.72;100.00;101610.47;5112967;28;20463;-47
2023/09/13 09:34:03;;;;;;;0.10;0.10;;;;;;;16.74;100.00;101618.28;5113631;28;20031;-47
2023/09/13 09:36:34;;;;;;;0.10;0.10;;;;;;;16.95;100.00;101617.78;5113371;28;20019;-48
2023/09/13 09:39:01;;;;;;;0.10;0.10;;;;;;;17.02;100.00;101616.16;5112653;28;20085;-46
2023/09/13 09:41:34;;;;;;;0.10;0.10;;;;;;;17.15;100.00;101622.44;5113226;28;20035;-49
2023/09/13 09:44:00;;;;;;;0.10;0.10;;;;;;;17.26;100.00;101618.22;5113366;28;20031;-47
2023/09/13 09:46:25;;;;;;;0.10;0.10;;;;;;;17.26;100.00;101613.03;5112173;28;20039;-46
2023/09/13 09:48:52;;;;;;;0.10;0.10;;;;;;;17.35;100.00;101622.72;5113767;28;20042;-48
2023/09/13 09:51:17;;;;;;;0.10;0.10;;;;;;;17.48;100.00;101615.94;5113214;28;20031;-45
2023/09/13 09:53:43;;;;;;;0.00;0.00;;;;;;;17.69;100.00;101624.03;5112465;28;20394;-45
2023/09/13 09:56:11;;;;;;;0.05;0.05;;;;;;;17.78;100.00;101629.34;5113216;28;20039;-45
2023/09/13 09:58:36;;;;;;;0.10;0.10;;;;;;;18.05;100.00;101627.97;5112894;28;20032;-47
2023/09/13 10:01:02;;;;;;;0.00;0.00;;;;;;;18.37;100.00;101622.22;5112402;28;20024;-49
2023/09/13 10:03:34;;;;;;;0.10;0.10;;;;;;;18.54;100.00;101630.19;5113084;28;20058;-45
2023/09/13 10:06:06;;;;;;;0.00;0.00;;;;;;;18.63;100.00;101632.03;5113053;28;20367;-50
2023/09/13 10:08:47;;;;;;;0.10;0.10;;;;;;;18.84;100.00;101638.28;5112220;28;20532;-45
2023/09/13 10:11:19;;;;;;;0.08;0.08;;;;;;;18.90;100.00;101636.63;5112760;28;20027;-46
2023/09/13 10:13:45;;;;;;;0.00;0.00;;;;;;;18.91;100.00;101640.09;5113229;28;20027;-47
2023/09/13 10:16:12;;;;;;;0.00;0.00;;;;;;;19.89;100.00;101641.56;5112523;28;20020;-46
2023/09/13 10:18:38;;;;;;;0.10;0.10;;;;;;;20.27;99.33;101637.28;5113231;28;20030;-47
2023/09/13 10:21:06;;;;;;;0.00;0.00;;;;;;;21.12;94.03;101645.22;5111969;28;20024;-50
2023/09/13 10:23:39;;;;;;;;;;;;;;;21.64;100.00;101642.50;5113212;28;20023;-51
2023/09/13 10:26:10;;;;;;;0.00;0.00;;;;;;;22.71;84.96;101648.88;5113175;28;19911;-51
2023/09/13 10:28:40;;;;;;;0.00;0.00;;;;;;;23.83;75.30;101662.66;5112138;28;20027;-49
2023/09/13 10:31:17;;;;;;;0.00;0.00;;;;;;;24.23;78.44;101682.34;5113116;28;20022;-50
2023/09/13 10:33:52;;;;;;;;;;;;;;;24.35;92.34;101686.56;5113271;28;20109;-49
2023/09/13 10:36:31;;;;;;;0.00;0.00;;;;;;;23.00;80.65;101686.28;5111691;28;20267;-46
2023/09/13 10:39:07;;;;;;;0.00;0.00;;;;;;;22.39;77.29;101681.50;5113135;28;20059;-51
2023/09/13 10:41:36;;;;;;;0.00;0.00;;;;;;;22.24;76.57;101685.09;5112769;28;20110;-51
2023/09/13 10:44:03;;;;;;;0.00;0.00;;;;;;;21.86;76.40;101684.38;5112085;28;20040;-45
2023/09/13 10:46:30;;;;;;;0.00;0.00;;;;;;;21.40;83.56;101687.97;5112559;28;20028;-47
2023/09/13 10:48:56;;;;;;;0.00;0.00;;;;;;;20.96;86.49;101692.41;5112677;28;20274;-46
2023/09/13 10:51:23;;;;;;;0.00;0.00;;;;;;;20.51;87.00;101700.19;5114986;28;20470;-46
2023/09/13 10:53:48;;;;;;;0.00;0.00;;;;;;;20.68;88.64;101689.75;5116320;28;20414;-51
2023/09/13 10:56:15;;;;;;;0.00;0.00;;;;;;;21.71;85.64;101698.44;5115247;28;20550;-49
2023/09/13 10:58:45;;;;;;;0.00;0.00;;;;;;;21.35;82.47;101700.22;5116436;28;20026;-47
2023/09/13 11:01:11;;;;;;;0.00;0.00;;;;;;;20.92;84.04;101695.91;5116274;28;20034;-51
2023/09/13 11:03:36;;;;;;;0.00;0.00;;;;;;;20.58;85.16;101706.31;5115587;28;20379;-46
2023/09/13 11:06:03;;;;;;;0.00;0.00;;;;;;;20.77;85.71;101696.75;5116236;28;20497;-48
2023/09/13 11:08:33;;;;;;;0.00;0.00;;;;;;;20.91;88.87;101712.47;5115930;28;20028;-46
2023/09/13 11:11:16;;;;;;;0.00;0.00;;;;;;;21.26;83.06;101708.97;5115382;28;20027;-50
2023/09/13 11:13:42;;;;;;;0.00;0.00;;;;;;;20.79;82.24;101709.88;5116107;28;20023;-45
2023/09/13 11:16:13;;;;;;;0.00;0.00;;;;;;;20.37;84.15;101718.50;5116192;28;20053;-46
2023/09/13 11:18:46;;;;;;;0.00;0.00;;;;;;;19.90;87.13;101711.34;5115203;28;20522;-51